Time;durP1;ratioP1;P1;durP2;ratioP2;P2;SDS_P1;SDS_P2;PMS_P1;PMS_P2;Temp;Humidity;BMP_temperature;BMP_pressure;BME280_temperature;BME280_humidity;BME280_pressure;Samples;Min_cycle;Max_cycle;Signal;HPM_P1;HPM_P2
2022/12/28 00:01:07;;;;;;;7.70;2.80;;;7.10;99.90;;;;;;5047136;28;20109;-38
2022/12/28 00:03:32;;;;;;;5.70;2.58;;;7.10;99.90;;;;;;5048583;28;20060;-38
2022/12/28 00:05:58;;;;;;;5.35;2.97;;;7.10;99.90;;;;;;5046124;28;20429;-39
2022/12/28 00:08:23;;;;;;;4.32;2.60;;;7.10;99.90;;;;;;5043642;28;20029;-39
2022/12/28 00:10:49;;;;;;;5.88;3.30;;;7.10;99.90;;;;;;5045153;28;20033;-37
2022/12/28 00:13:14;;;;;;;3.10;2.30;;;7.10;99.90;;;;;;5043446;28;20484;-37
2022/12/28 00:15:40;;;;;;;5.30;2.42;;;7.10;99.90;;;;;;5043576;28;20025;-39
2022/12/28 00:18:06;;;;;;;5.63;2.75;;;7.10;99.90;;;;;;5043449;28;20029;-39
2022/12/28 00:20:31;;;;;;;5.95;3.20;;;7.10;99.90;;;;;;5044178;28;20070;-39
2022/12/28 00:22:57;;;;;;;5.60;3.00;;;7.20;99.90;;;;;;5043232;28;20090;-39
2022/12/28 00:25:22;;;;;;;7.43;2.80;;;7.10;99.90;;;;;;5044295;28;20108;-39
2022/12/28 00:27:48;;;;;;;3.80;2.97;;;7.20;99.90;;;;;;5044576;28;20620;-38
2022/12/28 00:30:13;;;;;;;5.68;2.63;;;7.20;99.90;;;;;;5043438;28;20556;-39
2022/12/28 00:32:39;;;;;;;3.50;2.35;;;7.20;99.90;;;;;;5044055;28;20487;-38
2022/12/28 00:35:05;;;;;;;7.32;2.80;;;7.20;99.90;;;;;;5032317;28;20028;-36
2022/12/28 00:37:31;;;;;;;5.25;2.47;;;7.10;99.90;;;;;;5043816;28;20141;-40
2022/12/28 00:39:57;;;;;;;3.30;2.40;;;7.20;99.90;;;;;;5044910;28;20033;-39
2022/12/28 00:42:23;;;;;;;4.88;2.28;;;7.20;99.90;;;;;;5043789;28;20032;-36
2022/12/28 00:44:48;;;;;;;3.95;2.20;;;7.20;99.90;;;;;;5043073;28;20024;-40
2022/12/28 00:47:14;;;;;;;4.82;2.42;;;7.20;99.90;;;;;;5044247;28;20025;-40
2022/12/28 00:49:40;;;;;;;5.78;2.92;;;7.20;99.90;;;;;;5043414;28;20032;-35
2022/12/28 00:52:05;;;;;;;4.97;2.45;;;7.30;99.90;;;;;;5043519;28;20033;-40
2022/12/28 00:54:31;;;;;;;3.83;2.40;;;7.30;99.90;;;;;;5044714;28;20057;-41
2022/12/28 00:56:56;;;;;;;6.35;2.60;;;7.30;99.90;;;;;;5043235;28;20090;-39
2022/12/28 00:59:22;;;;;;;4.13;2.30;;;7.30;99.90;;;;;;5043171;28;20017;-40
2022/12/28 01:01:47;;;;;;;4.03;2.83;;;7.30;99.90;;;;;;5043734;28;20044;-38
2022/12/28 01:04:13;;;;;;;4.15;2.58;;;7.30;99.90;;;;;;5042432;28;20075;-39
2022/12/28 01:06:38;;;;;;;3.95;2.42;;;7.30;99.90;;;;;;5043249;28;20123;-38
2022/12/28 01:09:04;;;;;;;5.55;2.65;;;7.40;99.90;;;;;;5042978;28;20032;-40
2022/12/28 01:11:30;;;;;;;4.45;2.75;;;7.30;99.90;;;;;;5043298;28;20793;-40
2022/12/28 01:13:59;;;;;;;4.43;2.50;;;7.40;99.90;;;;;;5043087;28;20812;-37
2022/12/28 01:16:31;;;;;;;7.15;3.65;;;7.40;99.90;;;;;;5043242;28;20036;-39
2022/12/28 01:18:59;;;;;;;6.03;3.08;;;7.40;99.90;;;;;;5042069;28;20058;-37
2022/12/28 01:21:28;;;;;;;4.25;2.63;;;7.40;99.90;;;;;;5043354;28;20029;-39
2022/12/28 01:23:56;;;;;;;5.38;3.03;;;7.40;99.90;;;;;;5042800;28;20025;-38
2022/12/28 01:26:23;;;;;;;4.20;2.80;;;7.40;99.90;;;;;;5038869;28;20020;-38
2022/12/28 01:28:49;;;;;;;6.18;2.80;;;7.40;99.90;;;;;;5044120;28;20049;-39
2022/12/28 01:31:16;;;;;;;5.28;2.70;;;7.50;99.90;;;;;;5042676;28;20519;-38
2022/12/28 01:33:43;;;;;;;4.65;3.13;;;7.50;99.90;;;;;;5042970;28;20057;-39
2022/12/28 01:36:11;;;;;;;5.70;3.30;;;7.50;99.90;;;;;;5042405;28;20119;-39
2022/12/28 01:38:36;;;;;;;3.53;2.90;;;7.50;99.90;;;;;;5042281;28;20032;-39
2022/12/28 01:41:08;;;;;;;5.80;2.53;;;7.50;99.90;;;;;;5042568;28;20055;-40
2022/12/28 01:43:46;;;;;;;6.75;3.58;;;7.60;99.90;;;;;;5042938;28;20047;-40
2022/12/28 01:46:17;;;;;;;4.13;2.40;;;7.60;99.90;;;;;;5041672;28;20024;-37
2022/12/28 01:49:01;;;;;;;5.43;2.97;;;7.60;99.90;;;;;;5043700;28;20025;-39
2022/12/28 01:51:32;;;;;;;3.97;2.88;;;7.60;99.90;;;;;;5042561;28;20115;-41
2022/12/28 01:54:00;;;;;;;6.13;3.08;;;7.60;99.90;;;;;;5041950;28;20056;-37
2022/12/28 01:56:26;;;;;;;4.35;3.03;;;7.60;99.90;;;;;;5043121;28;20056;-39
2022/12/28 01:58:53;;;;;;;3.58;3.08;;;7.70;99.90;;;;;;5043085;28;20037;-40
2022/12/28 02:01:19;;;;;;;4.25;3.22;;;7.70;99.90;;;;;;5041334;28;20130;-39
2022/12/28 02:03:44;;;;;;;4.47;2.72;;;7.70;99.90;;;;;;5042255;28;20490;-40
2022/12/28 02:06:11;;;;;;;3.95;3.05;;;7.70;99.90;;;;;;5041815;28;20017;-39
2022/12/28 02:08:54;;;;;;;4.00;3.10;;;7.70;99.90;;;;;;5042049;28;20083;-40
2022/12/28 02:11:20;;;;;;;;;;;7.70;99.90;;;;;;5042637;28;20041;-39
2022/12/28 02:13:49;;;;;;;2.88;2.63;;;7.80;99.90;;;;;;5041715;28;19908;-38
2022/12/28 02:16:15;;;;;;;6.35;3.08;;;7.80;99.90;;;;;;5040846;28;20709;-39
2022/12/28 02:18:42;;;;;;;6.72;3.17;;;7.80;99.90;;;;;;5042559;28;20111;-38
2022/12/28 02:21:08;;;;;;;5.28;3.03;;;7.80;99.90;;;;;;5041338;28;20021;-36
2022/12/28 02:23:52;;;;;;;5.85;3.05;;;7.80;99.90;;;;;;5043060;28;20412;-39
2022/12/28 02:26:55;;;;;;;4.22;2.80;;;7.80;99.90;;;;;;5041759;28;20530;-40
2022/12/28 02:29:29;;;;;;;4.95;2.72;;;7.90;99.90;;;;;;5032999;28;20044;-39
2022/12/28 02:32:02;;;;;;;5.07;3.40;;;7.90;99.90;;;;;;5041989;28;20622;-39
2022/12/28 02:34:32;;;;;;;4.00;3.00;;;7.90;99.90;;;;;;5041759;28;20190;-39
2022/12/28 02:37:10;;;;;;;5.45;2.80;;;7.90;99.90;;;;;;5040786;28;20025;-42
2022/12/28 02:39:43;;;;;;;3.70;3.13;;;7.90;99.90;;;;;;5041271;28;20033;-39
2022/12/28 02:42:10;;;;;;;5.00;2.80;;;7.90;99.90;;;;;;5040397;28;20039;-38
2022/12/28 02:50:09;;;;;;;5.95;3.00;;;7.90;99.90;;;;;;5040689;28;20163;-39
2022/12/28 02:53:18;;;;;;;7.63;3.38;;;7.90;99.90;;;;;;5042010;28;20039;-40
2022/12/28 02:56:13;;;;;;;5.07;3.10;;;7.80;99.90;;;;;;5030910;28;20052;-37
2022/12/28 02:59:00;;;;;;;5.18;3.00;;;7.80;99.90;;;;;;5036190;28;20041;-37
2022/12/28 03:01:39;;;;;;;5.05;3.50;;;7.80;99.90;;;;;;5022136;28;20485;-40
2022/12/28 03:04:32;;;;;;;4.30;3.10;;;7.80;99.90;;;;;;5038112;28;20025;-37
2022/12/28 03:10:17;;;;;;;3.67;3.10;;;7.70;99.90;;;;;;5039278;28;20154;-38
2022/12/28 03:13:41;;;;;;;4.38;3.10;;;7.70;99.90;;;;;;5041701;28;20033;-37
2022/12/28 03:16:03;;;;;;;4.93;3.38;;;7.70;99.90;;;;;;5034770;28;20044;-39
2022/12/28 03:32:31;;;;;;;4.78;3.60;;;7.60;99.90;;;;;;5020854;28;20413;-37
2022/12/28 03:34:56;;;;;;;5.75;3.47;;;7.60;99.90;;;;;;5037356;28;20045;-40
2022/12/28 03:37:33;;;;;;;5.57;3.42;;;7.60;99.90;;;;;;5041455;28;20036;-39
2022/12/28 03:40:39;;;;;;;6.25;3.38;;;7.70;99.90;;;;;;5040643;28;20488;-37
2022/12/28 03:46:28;;;;;;;4.47;3.13;;;7.70;99.90;;;;;;5043988;28;20122;-40
2022/12/28 03:48:56;;;;;;;4.45;3.15;;;7.70;99.90;;;;;;5045035;28;20032;-40
2022/12/28 03:51:23;;;;;;;4.60;4.00;;;7.70;99.90;;;;;;5044641;28;20044;-40
2022/12/28 03:53:48;;;;;;;4.22;3.10;;;7.70;99.90;;;;;;5044569;28;20059;-38
2022/12/28 03:56:20;;;;;;;3.80;3.17;;;7.80;99.90;;;;;;5044390;28;20742;-39
2022/12/28 03:58:46;;;;;;;5.47;2.97;;;7.80;99.90;;;;;;5045199;28;20526;-41
2022/12/28 04:01:11;;;;;;;3.60;3.25;;;7.90;99.90;;;;;;5043591;28;20856;-40
2022/12/28 04:03:38;;;;;;;4.10;3.70;;;7.90;99.90;;;;;;5044816;28;20044;-41
2022/12/28 04:06:04;;;;;;;4.13;3.38;;;7.90;99.90;;;;;;5042484;28;20025;-40
2022/12/28 04:08:31;;;;;;;3.67;3.30;;;7.90;99.90;;;;;;5028013;28;20048;-39
2022/12/28 04:10:58;;;;;;;4.95;3.17;;;7.90;99.90;;;;;;5038235;28;20580;-40
2022/12/28 04:13:24;;;;;;;5.32;3.10;;;7.90;99.90;;;;;;5043852;28;20021;-38
2022/12/28 04:15:58;;;;;;;4.75;3.40;;;8.00;99.90;;;;;;5044345;28;20747;-40
2022/12/28 04:18:27;;;;;;;3.47;3.17;;;8.00;99.90;;;;;;5043980;28;20492;-38
2022/12/28 04:20:53;;;;;;;3.75;3.05;;;8.00;99.90;;;;;;5043086;28;20476;-38
2022/12/28 04:23:19;;;;;;;4.05;3.50;;;8.00;99.90;;;;;;5044282;28;20076;-37
2022/12/28 04:25:56;;;;;;;5.88;3.47;;;8.10;99.90;;;;;;5044012;28;20051;-40
2022/12/28 04:28:21;;;;;;;5.00;3.45;;;8.10;99.90;;;;;;5043493;28;20059;-37
2022/12/28 04:30:50;;;;;;;6.50;3.55;;;8.10;99.90;;;;;;5044169;28;20132;-40
2022/12/28 04:33:16;;;;;;;4.85;3.50;;;8.10;99.90;;;;;;5043787;28;20088;-39
2022/12/28 04:35:41;;;;;;;4.85;3.70;;;8.10;99.90;;;;;;5043498;28;20795;-40
2022/12/28 04:38:07;;;;;;;5.10;3.30;;;8.10;99.90;;;;;;5043572;28;20037;-39
2022/12/28 04:40:32;;;;;;;4.43;3.33;;;8.20;99.90;;;;;;5043965;28;20051;-39
2022/12/28 04:42:58;;;;;;;3.22;2.90;;;8.20;99.90;;;;;;5042960;28;20422;-39
2022/12/28 04:45:24;;;;;;;4.63;3.42;;;8.20;99.90;;;;;;5044043;28;20096;-38
2022/12/28 04:47:49;;;;;;;5.15;3.50;;;8.20;99.90;;;;;;5043738;28;20225;-38
2022/12/28 04:50:15;;;;;;;5.47;3.63;;;8.20;99.90;;;;;;5042783;28;20025;-37
2022/12/28 04:52:41;;;;;;;3.22;3.00;;;8.20;99.90;;;;;;5043261;28;20068;-39
2022/12/28 04:55:07;;;;;;;3.67;3.28;;;8.20;99.90;;;;;;5043621;28;20020;-39
2022/12/28 04:57:33;;;;;;;5.35;3.08;;;8.20;99.90;;;;;;5043140;28;20029;-37
2022/12/28 04:59:58;;;;;;;4.18;3.65;;;8.30;99.90;;;;;;5043375;28;20027;-38
2022/12/28 05:02:24;;;;;;;3.25;2.95;;;8.30;99.90;;;;;;5042911;28;20116;-39
2022/12/28 05:04:49;;;;;;;5.22;3.70;;;8.30;99.90;;;;;;5044215;28;20063;-38
2022/12/28 05:07:15;;;;;;;4.50;3.88;;;8.30;99.90;;;;;;5043366;28;20067;-38
2022/12/28 05:09:40;;;;;;;4.75;3.95;;;8.30;99.90;;;;;;5043162;28;20499;-40
2022/12/28 05:12:06;;;;;;;4.40;3.90;;;8.30;99.90;;;;;;5043404;28;20389;-40
2022/12/28 05:14:31;;;;;;;5.25;3.90;;;8.30;99.90;;;;;;5044411;28;20376;-39
2022/12/28 05:16:57;;;;;;;4.20;3.58;;;8.30;99.90;;;;;;5042810;28;20098;-34
2022/12/28 05:19:22;;;;;;;5.90;3.85;;;8.40;99.90;;;;;;5043470;28;20449;-39
2022/12/28 05:21:48;;;;;;;4.10;3.75;;;8.40;99.90;;;;;;5043806;28;20483;-39
2022/12/28 05:24:13;;;;;;;4.10;3.60;;;8.40;99.90;;;;;;5042276;28;20025;-37
2022/12/28 05:26:39;;;;;;;5.65;3.90;;;8.40;99.90;;;;;;5043772;28;20714;-38
2022/12/28 05:29:04;;;;;;;5.03;3.85;;;8.40;99.90;;;;;;5043014;28;20548;-38
2022/12/28 05:31:30;;;;;;;4.60;3.60;;;8.40;99.90;;;;;;5042396;28;20127;-40
2022/12/28 05:33:55;;;;;;;4.72;4.30;;;8.40;99.90;;;;;;5042795;28;20052;-38
2022/12/28 05:36:24;;;;;;;4.57;3.63;;;8.40;99.90;;;;;;5042646;28;20029;-39
2022/12/28 05:38:50;;;;;;;4.95;3.90;;;8.40;99.90;;;;;;5042168;28;20056;-38
2022/12/28 05:41:21;;;;;;;6.30;4.00;;;8.50;99.90;;;;;;5042444;28;20066;-32
2022/12/28 05:43:47;;;;;;;4.75;3.80;;;8.50;99.90;;;;;;5042954;28;20103;-35
2022/12/28 05:46:19;;;;;;;4.40;3.88;;;8.50;99.90;;;;;;5041978;28;20354;-39
2022/12/28 05:48:45;;;;;;;3.97;3.58;;;8.50;99.90;;;;;;5042877;28;20124;-38
2022/12/28 05:51:14;;;;;;;6.10;3.75;;;8.50;99.90;;;;;;5042345;28;20032;-39
2022/12/28 05:53:40;;;;;;;4.47;3.80;;;8.60;99.90;;;;;;5042161;28;20021;-38
2022/12/28 05:56:14;;;;;;;4.90;3.90;;;8.50;99.90;;;;;;5042218;28;20511;-38
2022/12/28 05:58:40;;;;;;;3.80;3.50;;;8.60;99.90;;;;;;5041750;28;20021;-37
2022/12/28 06:01:08;;;;;;;5.68;3.90;;;8.60;99.90;;;;;;5041723;28;20029;-38
2022/12/28 06:03:35;;;;;;;5.05;3.85;;;8.60;99.90;;;;;;5042058;28;20491;-39
2022/12/28 06:06:09;;;;;;;4.20;3.63;;;8.60;99.90;;;;;;5040751;28;20798;-38
2022/12/28 06:08:37;;;;;;;3.50;3.20;;;8.60;99.90;;;;;;5042510;28;20017;-39
2022/12/28 06:11:04;;;;;;;6.07;3.22;;;8.60;99.90;;;;;;5042435;28;20029;-39
2022/12/28 06:13:31;;;;;;;4.10;3.55;;;8.70;99.90;;;;;;5041693;28;20056;-37
2022/12/28 06:15:57;;;;;;;3.17;2.88;;;8.70;99.90;;;;;;5041890;28;20083;-40
2022/12/28 06:18:23;;;;;;;3.47;3.17;;;8.70;99.90;;;;;;5042711;28;20029;-40
2022/12/28 06:20:49;;;;;;;4.20;3.28;;;8.70;99.90;;;;;;5041747;28;20025;-40
2022/12/28 06:23:14;;;;;;;3.05;2.67;;;8.80;99.90;;;;;;5042131;28;20048;-39
2022/12/28 06:25:40;;;;;;;3.67;3.10;;;8.80;99.90;;;;;;5042674;28;20033;-41
2022/12/28 06:28:05;;;;;;;3.22;2.90;;;8.80;99.90;;;;;;5040889;28;20124;-38
2022/12/28 06:30:31;;;;;;;4.07;3.30;;;8.80;99.90;;;;;;5042063;28;20029;-40
2022/12/28 06:32:56;;;;;;;3.55;3.13;;;8.80;99.90;;;;;;5041915;28;20053;-39
2022/12/28 06:35:22;;;;;;;3.08;2.78;;;8.80;99.90;;;;;;5040824;28;20141;-40
2022/12/28 06:37:48;;;;;;;4.20;3.00;;;8.80;99.90;;;;;;5042221;28;20037;-39
2022/12/28 06:40:14;;;;;;;4.38;2.90;;;8.80;99.90;;;;;;5041547;28;20549;-39
2022/12/28 06:42:39;;;;;;;4.72;2.70;;;8.80;99.90;;;;;;5041619;28;20082;-40
2022/12/28 06:45:06;;;;;;;3.08;2.75;;;8.80;99.90;;;;;;5041094;28;20079;-40
2022/12/28 06:47:32;;;;;;;3.13;2.60;;;8.90;99.90;;;;;;5040300;28;20030;-37
2022/12/28 06:49:58;;;;;;;3.38;3.00;;;8.90;99.90;;;;;;5039616;28;20962;-39
2022/12/28 06:52:23;;;;;;;4.10;3.15;;;8.90;99.90;;;;;;5040952;28;20025;-39
2022/12/28 06:54:49;;;;;;;4.18;3.00;;;8.90;99.90;;;;;;5041500;28;20487;-38
2022/12/28 06:57:15;;;;;;;2.70;2.50;;;8.90;99.90;;;;;;5039818;28;20503;-40
2022/12/28 06:59:40;;;;;;;2.90;2.63;;;8.90;99.90;;;;;;5041267;28;20048;-36
2022/12/28 07:02:07;;;;;;;3.45;2.80;;;8.90;99.90;;;;;;5039816;28;20033;-38
2022/12/28 07:04:33;;;;;;;4.03;2.90;;;9.00;99.90;;;;;;5041419;28;20032;-39
2022/12/28 07:06:58;;;;;;;4.05;2.60;;;9.00;99.90;;;;;;5040559;28;20803;-39
2022/12/28 07:09:24;;;;;;;4.43;2.90;;;9.00;99.90;;;;;;5040759;28;20104;-37
2022/12/28 07:11:50;;;;;;;5.88;3.15;;;9.00;99.90;;;;;;5040737;28;20117;-36
2022/12/28 07:14:15;;;;;;;3.85;3.00;;;9.00;99.90;;;;;;5040726;28;20099;-38
2022/12/28 07:16:41;;;;;;;3.28;2.90;;;9.00;99.90;;;;;;5042990;28;20136;-37
2022/12/28 07:19:07;;;;;;;2.90;2.70;;;9.10;99.90;;;;;;5044161;28;20551;-38
2022/12/28 07:21:36;;;;;;;4.25;3.17;;;9.10;99.90;;;;;;5044828;28;20028;-39
2022/12/28 07:24:03;;;;;;;3.30;2.90;;;9.10;99.90;;;;;;5044686;28;20031;-39
2022/12/28 07:26:30;;;;;;;4.45;3.00;;;9.10;99.90;;;;;;5045067;28;20452;-39
2022/12/28 07:28:58;;;;;;;3.47;2.83;;;9.10;99.90;;;;;;5044944;28;20586;-39
2022/12/28 07:31:27;;;;;;;2.83;2.60;;;9.10;99.90;;;;;;5043550;28;20492;-38
2022/12/28 07:33:55;;;;;;;3.10;2.70;;;9.20;99.90;;;;;;5044200;28;20053;-37
2022/12/28 07:36:25;;;;;;;4.07;2.90;;;9.20;99.90;;;;;;5044641;28;20025;-40
2022/12/28 07:38:51;;;;;;;4.82;2.80;;;9.20;99.90;;;;;;5043983;28;20055;-39
2022/12/28 07:41:20;;;;;;;3.72;2.83;;;9.20;99.90;;;;;;5041930;28;20801;-39
2022/12/28 07:43:46;;;;;;;3.40;2.88;;;9.20;99.90;;;;;;5044387;28;20025;-39
2022/12/28 07:46:16;;;;;;;2.97;2.67;;;9.20;99.90;;;;;;5044218;28;20051;-38
2022/12/28 07:48:43;;;;;;;2.83;2.53;;;9.20;99.90;;;;;;5043923;28;20079;-39
2022/12/28 07:51:12;;;;;;;3.00;2.80;;;9.20;99.90;;;;;;5043976;28;20438;-40
2022/12/28 07:53:38;;;;;;;3.72;2.83;;;9.20;99.90;;;;;;5043538;28;20044;-40
2022/12/28 07:56:04;;;;;;;3.00;2.70;;;9.20;99.90;;;;;;5044236;28;20380;-38
2022/12/28 07:58:30;;;;;;;3.95;2.97;;;9.30;99.90;;;;;;5043805;28;20033;-38
2022/12/28 08:01:06;;;;;;;5.57;3.15;;;9.30;99.90;;;;;;5044407;28;20032;-39
2022/12/28 08:03:31;;;;;;;3.20;2.80;;;9.30;99.90;;;;;;5044731;28;20021;-38
2022/12/28 08:06:11;;;;;;;3.42;3.03;;;9.30;99.90;;;;;;5043800;28;20036;-38
2022/12/28 08:08:40;;;;;;;3.17;2.85;;;9.30;99.90;;;;;;5044677;28;20829;-39
2022/12/28 08:11:09;;;;;;;5.57;3.25;;;9.30;99.90;;;;;;5044251;28;20032;-40
2022/12/28 08:13:37;;;;;;;3.78;3.03;;;9.40;99.90;;;;;;5044241;28;20052;-39
2022/12/28 08:16:04;;;;;;;3.05;2.70;;;9.30;99.90;;;;;;5043843;28;20017;-38
2022/12/28 08:18:30;;;;;;;2.95;2.63;;;9.40;99.90;;;;;;5044487;28;20029;-38
2022/12/28 08:21:07;;;;;;;3.90;3.13;;;9.40;99.90;;;;;;5043821;28;20754;-39
2022/12/28 08:23:33;;;;;;;4.28;2.70;;;9.40;99.90;;;;;;5048274;28;20029;-39
2022/12/28 08:26:11;;;;;;;2.95;2.42;;;9.40;99.90;;;;;;5043635;28;20029;-38
2022/12/28 08:28:38;;;;;;;4.18;2.97;;;9.40;99.90;;;;;;5041913;28;20036;-37
2022/12/28 08:31:09;;;;;;;3.75;2.53;;;9.40;99.90;;;;;;5043120;28;20041;-40
2022/12/28 08:33:35;;;;;;;4.25;2.90;;;9.40;99.90;;;;;;5042543;28;20053;-39
2022/12/28 08:36:01;;;;;;;4.78;2.97;;;9.40;99.90;;;;;;5043514;28;20025;-39
2022/12/28 08:38:27;;;;;;;3.40;2.83;;;9.40;99.90;;;;;;5042887;28;20102;-40
2022/12/28 08:41:01;;;;;;;3.53;2.95;;;9.40;99.90;;;;;;5043431;28;20031;-38
2022/12/28 08:43:30;;;;;;;3.22;2.83;;;9.40;99.90;;;;;;5044204;28;20117;-37
2022/12/28 08:46:02;;;;;;;3.00;2.80;;;9.40;99.90;;;;;;5044369;28;20025;-39
2022/12/28 08:48:28;;;;;;;3.85;2.85;;;9.40;99.90;;;;;;5044380;28;20048;-39
2022/12/28 08:50:59;;;;;;;4.05;3.15;;;9.40;99.90;;;;;;5043707;28;20033;-44
2022/12/28 08:53:25;;;;;;;4.32;3.38;;;9.50;99.90;;;;;;5044622;28;20424;-40
2022/12/28 08:55:50;;;;;;;3.75;3.13;;;9.50;99.90;;;;;;5043861;28;20021;-39
2022/12/28 08:58:17;;;;;;;4.80;3.08;;;9.50;99.90;;;;;;5043065;28;20484;-38
2022/12/28 09:00:42;;;;;;;3.20;2.90;;;9.50;99.90;;;;;;5043658;28;20031;-40
2022/12/28 09:03:08;;;;;;;4.55;2.60;;;9.50;99.90;;;;;;5042082;28;20040;-40
2022/12/28 09:05:38;;;;;;;4.32;3.35;;;9.60;99.90;;;;;;5043635;28;20703;-39
2022/12/28 09:08:04;;;;;;;3.78;2.60;;;9.60;99.90;;;;;;5043534;28;20039;-40
2022/12/28 09:10:30;;;;;;;3.35;2.30;;;9.60;99.90;;;;;;5042196;28;20017;-39
2022/12/28 09:12:55;;;;;;;3.85;2.58;;;9.60;99.90;;;;;;5043614;28;20033;-37
2022/12/28 09:15:21;;;;;;;3.13;2.78;;;9.60;99.90;;;;;;5043913;28;20473;-41
2022/12/28 09:17:47;;;;;;;2.63;2.35;;;9.60;99.90;;;;;;5043004;28;20491;-39
2022/12/28 09:20:13;;;;;;;3.00;2.20;;;9.50;99.90;;;;;;5043007;28;20025;-40
2022/12/28 09:22:38;;;;;;;2.58;2.38;;;9.60;99.90;;;;;;5043058;28;20057;-40
2022/12/28 09:25:04;;;;;;;2.60;2.40;;;9.60;99.90;;;;;;5042924;28;20052;-41
2022/12/28 09:27:30;;;;;;;2.47;2.28;;;9.60;99.90;;;;;;5043225;28;20075;-39
2022/12/28 09:29:55;;;;;;;3.05;2.10;;;9.50;99.90;;;;;;5043007;28;20098;-39
2022/12/28 09:32:21;;;;;;;2.28;2.08;;;9.50;99.90;;;;;;5042105;28;20035;-39
2022/12/28 09:34:46;;;;;;;2.65;2.45;;;9.50;99.90;;;;;;5042955;28;20045;-39
2022/12/28 09:37:12;;;;;;;4.10;2.33;;;9.50;99.90;;;;;;5041228;28;20037;-40
2022/12/28 09:39:38;;;;;;;6.05;2.92;;;9.50;99.90;;;;;;5040957;28;20025;-40
2022/12/28 09:42:17;;;;;;;4.65;2.47;;;9.60;99.90;;;;;;5042861;28;20021;-40
2022/12/28 09:44:49;;;;;;;4.82;2.42;;;9.60;99.90;;;;;;5022152;28;20027;-40
2022/12/28 09:47:29;;;;;;;5.82;2.60;;;9.60;99.90;;;;;;5037082;28;20277;-40
2022/12/28 09:50:17;;;;;;;3.92;2.70;;;9.60;99.90;;;;;;5022985;28;20025;-39
2022/12/28 09:53:02;;;;;;;4.75;2.70;;;9.60;99.90;;;;;;5040128;28;20118;-37
2022/12/28 09:55:28;;;;;;;4.97;2.72;;;9.60;99.90;;;;;;5043484;28;20119;-40
2022/12/28 09:57:57;;;;;;;3.08;2.75;;;9.60;99.90;;;;;;5040246;28;20465;-38
2022/12/28 10:00:31;;;;;;;4.30;2.97;;;9.60;99.90;;;;;;5041070;28;20037;-38
2022/12/28 10:03:02;;;;;;;3.20;2.75;;;9.70;99.90;;;;;;5041390;28;20029;-40
2022/12/28 10:05:28;;;;;;;4.00;2.70;;;9.70;99.90;;;;;;5019443;28;20034;-39
2022/12/28 10:07:57;;;;;;;6.18;3.40;;;9.70;99.90;;;;;;5034389;28;20143;-39
2022/12/28 10:10:24;;;;;;;4.80;2.63;;;9.70;99.90;;;;;;5039496;28;20025;-39
2022/12/28 10:12:50;;;;;;;3.92;2.20;;;9.70;99.90;;;;;;5040337;28;20055;-39
2022/12/28 10:15:16;;;;;;;3.40;2.40;;;9.70;99.90;;;;;;5040498;28;20016;-39
2022/12/28 10:17:43;;;;;;;4.70;2.55;;;9.70;99.90;;;;;;5041871;28;20033;-40
2022/12/28 10:20:17;;;;;;;3.30;2.58;;;9.70;99.90;;;;;;5035895;28;20150;-37
2022/12/28 10:22:47;;;;;;;4.15;2.17;;;9.60;99.90;;;;;;5038585;28;20651;-40
2022/12/28 10:25:15;;;;;;;3.65;2.00;;;9.60;99.90;;;;;;5038691;28;20029;-39
2022/12/28 10:27:41;;;;;;;2.92;1.90;;;9.70;99.90;;;;;;5038363;28;20025;-40
2022/12/28 10:30:16;;;;;;;2.47;2.10;;;9.70;99.90;;;;;;5038990;28;20994;-39
2022/12/28 10:32:53;;;;;;;3.17;2.20;;;9.70;99.90;;;;;;5040266;28;20035;-39
2022/12/28 10:35:29;;;;;;;3.20;2.63;;;9.70;99.90;;;;;;5041261;28;20044;-39
2022/12/28 10:38:06;;;;;;;4.03;2.40;;;9.70;99.90;;;;;;5040861;28;20108;-41
2022/12/28 10:40:38;;;;;;;2.80;2.25;;;9.70;99.90;;;;;;5041912;28;20033;-39
2022/12/28 10:43:05;;;;;;;3.13;2.20;;;9.70;99.90;;;;;;5041752;28;20570;-40
2022/12/28 10:45:40;;;;;;;2.83;2.17;;;9.80;99.90;;;;;;5041402;28;20040;-40
2022/12/28 10:48:16;;;;;;;3.00;1.90;;;9.70;99.90;;;;;;5040516;28;20056;-37
2022/12/28 10:50:55;;;;;;;3.38;1.92;;;9.80;99.90;;;;;;5030816;28;20025;-39
2022/12/28 10:53:31;;;;;;;2.05;1.90;;;9.80;99.90;;;;;;5040914;28;20032;-37
2022/12/28 10:56:27;;;;;;;4.45;2.50;;;9.80;99.90;;;;;;5031838;28;20032;-39
2022/12/28 10:59:11;;;;;;;5.45;2.58;;;9.80;99.90;;;;;;5039915;28;20547;-38
2022/12/28 11:01:38;;;;;;;5.53;2.40;;;9.80;99.90;;;;;;5040793;28;20056;-38
2022/12/28 11:04:06;;;;;;;2.50;1.90;;;9.80;99.90;;;;;;5041677;28;20028;-39
2022/12/28 11:06:34;;;;;;;4.82;2.33;;;9.80;99.90;;;;;;5042157;28;20033;-39
2022/12/28 11:09:19;;;;;;;2.40;2.20;;;9.80;99.90;;;;;;5040794;28;20838;-38
2022/12/28 11:11:46;;;;;;;2.85;2.10;;;9.80;99.90;;;;;;5041213;28;20500;-37
2022/12/28 11:14:27;;;;;;;2.60;2.10;;;9.90;99.90;;;;;;5027353;28;20031;-40
2022/12/28 11:16:53;;;;;;;3.20;2.10;;;9.90;99.90;;;;;;5040672;28;20693;-39
2022/12/28 11:19:20;;;;;;;1.80;1.70;;;9.90;99.90;;;;;;5041819;28;20032;-39
2022/12/28 11:21:47;;;;;;;2.25;1.52;;;9.90;99.90;;;;;;5041418;28;20520;-37
2022/12/28 11:24:15;;;;;;;1.80;1.55;;;9.90;99.90;;;;;;5040326;28;20017;-40
2022/12/28 11:26:47;;;;;;;1.40;1.30;;;9.90;99.90;;;;;;5041549;28;20086;-40
2022/12/28 11:29:14;;;;;;;2.20;2.00;;;9.90;99.90;;;;;;5041111;28;20029;-39
2022/12/28 11:32:01;;;;;;;2.28;2.08;;;9.90;99.90;;;;;;5041325;28;20290;-40
2022/12/28 11:34:30;;;;;;;1.83;1.48;;;9.90;99.90;;;;;;5041693;28;20796;-39
2022/12/28 11:36:56;;;;;;;1.40;1.30;;;9.90;99.90;;;;;;5040505;28;20029;-38
2022/12/28 11:39:25;;;;;;;1.50;1.40;;;9.90;99.90;;;;;;5041150;28;20025;-36
2022/12/28 11:41:58;;;;;;;2.15;1.60;;;9.90;99.90;;;;;;5040882;28;20064;-39
2022/12/28 11:44:44;;;;;;;1.33;1.20;;;9.90;99.90;;;;;;5040911;28;20021;-39
2022/12/28 11:47:15;;;;;;;1.40;1.30;;;9.90;99.90;;;;;;5036092;28;20768;-37
2022/12/28 11:49:42;;;;;;;1.60;1.42;;;9.90;99.90;;;;;;5040926;28;20388;-39
2022/12/28 11:52:18;;;;;;;1.30;1.10;;;9.90;99.90;;;;;;5039996;28;20040;-40
2022/12/28 11:54:53;;;;;;;1.20;1.10;;;9.90;99.90;;;;;;5041872;28;20033;-40
2022/12/28 11:57:39;;;;;;;1.83;1.10;;;9.90;99.90;;;;;;5039884;28;20539;-39
2022/12/28 12:00:20;;;;;;;1.38;1.27;;;10.00;99.90;;;;;;5040909;28;20021;-39
2022/12/28 12:02:55;;;;;;;1.40;1.30;;;10.00;99.90;;;;;;5041582;28;20068;-41
2022/12/28 12:05:36;;;;;;;1.90;1.20;;;9.90;99.90;;;;;;5043511;28;20028;-40
2022/12/28 12:08:21;;;;;;;1.42;1.30;;;9.90;99.90;;;;;;5044182;28;20420;-38
2022/12/28 12:10:48;;;;;;;1.10;0.93;;;10.00;99.90;;;;;;5039915;28;20036;-40
2022/12/28 12:13:29;;;;;;;3.40;1.40;;;10.00;99.90;;;;;;5043560;28;20052;-40
2022/12/28 12:16:02;;;;;;;1.83;1.20;;;10.00;99.90;;;;;;5044910;28;20116;-39
2022/12/28 12:18:29;;;;;;;1.40;1.30;;;9.90;99.90;;;;;;5044234;28;20025;-41
2022/12/28 12:21:05;;;;;;;1.70;1.42;;;10.00;99.90;;;;;;5044145;28;20029;-39
2022/12/28 12:23:55;;;;;;;1.73;1.63;;;10.00;99.90;;;;;;5043781;28;20066;-40
2022/12/28 12:26:48;;;;;;;2.55;1.40;;;9.90;99.90;;;;;;5042391;28;20805;-40
2022/12/28 12:29:19;;;;;;;1.38;1.27;;;10.00;99.90;;;;;;5035148;28;20048;-39
2022/12/28 12:32:02;;;;;;;1.60;1.35;;;9.90;99.90;;;;;;5043982;28;20033;-39
2022/12/28 12:34:54;;;;;;;;;;;9.90;99.90;;;;;;5043806;28;20484;-40
2022/12/28 12:37:43;;;;;;;1.80;1.50;;;10.00;99.90;;;;;;5041341;28;19931;-40
2022/12/28 12:40:08;;;;;;;5.65;1.77;;;9.90;99.90;;;;;;5039615;28;20032;-39
2022/12/28 12:42:45;;;;;;;2.60;1.42;;;9.90;99.90;;;;;;5051165;28;20056;-40
2022/12/28 12:45:46;;;;;;;2.95;1.70;;;10.00;99.90;;;;;;5043241;28;20028;-40
2022/12/28 12:48:44;;;;;;;3.78;1.50;;;9.90;99.90;;;;;;5043047;28;20027;-40
2022/12/28 12:51:21;;;;;;;2.28;1.70;;;10.00;99.90;;;;;;4990808;28;20124;-40
2022/12/28 12:53:59;;;;;;;3.72;1.92;;;10.00;99.90;;;;;;5042813;28;20067;-40
2022/12/28 12:56:29;;;;;;;2.30;1.58;;;10.00;99.90;;;;;;5042467;28;20033;-36
2022/12/28 12:59:09;;;;;;;4.45;1.75;;;10.00;99.90;;;;;;5041579;28;20029;-40
2022/12/28 13:01:43;;;;;;;3.58;2.05;;;10.10;99.90;;;;;;5042664;28;20055;-40
2022/12/28 13:04:22;;;;;;;4.35;2.20;;;10.10;99.90;;;;;;5042472;28;20480;-41
2022/12/28 13:06:54;;;;;;;5.47;2.35;;;10.10;99.90;;;;;;5041785;28;20040;-40
2022/12/28 13:09:22;;;;;;;3.50;2.13;;;10.10;99.90;;;;;;5040824;28;20028;-40
2022/12/28 13:11:49;;;;;;;3.70;2.45;;;10.10;99.90;;;;;;5042734;28;20099;-40
2022/12/28 13:14:18;;;;;;;3.83;2.05;;;10.10;99.90;;;;;;5041095;28;20025;-38
2022/12/28 13:16:49;;;;;;;3.28;1.90;;;10.10;99.90;;;;;;5043284;28;20100;-40
2022/12/28 13:19:19;;;;;;;3.80;2.22;;;10.10;99.90;;;;;;5043128;28;20052;-37
2022/12/28 13:21:50;;;;;;;3.10;2.05;;;10.10;99.90;;;;;;5042532;28;20059;-40
2022/12/28 13:24:29;;;;;;;3.25;1.90;;;10.10;99.90;;;;;;5042442;28;20532;-39
2022/12/28 13:26:57;;;;;;;3.58;2.60;;;10.10;99.90;;;;;;5043463;28;20025;-38
2022/12/28 13:29:25;;;;;;;4.18;2.05;;;10.20;99.90;;;;;;5041749;28;20017;-39
2022/12/28 13:31:51;;;;;;;3.22;1.75;;;10.20;99.90;;;;;;5042163;28;20037;-38
2022/12/28 13:34:28;;;;;;;4.50;1.80;;;10.20;99.90;;;;;;5042096;28;20056;-38
2022/12/28 13:37:16;;;;;;;5.07;2.17;;;10.20;99.90;;;;;;5042870;28;20053;-41
2022/12/28 13:39:41;;;;;;;4.05;2.13;;;10.20;99.90;;;;;;5042340;28;20086;-39